Time;durP1;ratioP1;P1;durP2;ratioP2;P2;SDS_P1;SDS_P2;PMS_P1;PMS_P2;Temp;Humidity;BMP_temperature;BMP_pressure;BME280_temperature;BME280_humidity;BME280_pressure;Samples;Min_cycle;Max_cycle;Signal;HPM_P1;HPM_P2
2023/01/05 00:00:22;;;;;;;7.32;1.80;;;;;;;9.43;92.17;98239.97;4236859;27;20041;-73
2023/01/05 00:02:23;;;;;;;5.57;1.77;;;;;;;9.34;92.67;98240.25;4235898;27;20049;-73
2023/01/05 00:04:23;;;;;;;5.88;2.03;;;;;;;9.33;92.46;98244.19;4235193;27;20090;-73
2023/01/05 00:06:24;;;;;;;7.32;1.70;;;;;;;9.39;92.04;98236.38;4223346;27;20089;-73
2023/01/05 00:08:24;;;;;;;5.25;1.63;;;;;;;9.41;91.80;98236.78;4231118;27;20039;-73
2023/01/05 00:24:20;;;;;;;8.65;3.15;;;;;;;9.29;91.43;98226.81;4223992;27;20393;-73
2023/01/05 00:26:20;;;;;;;7.57;1.50;;;;;;;9.24;91.19;98216.06;4222916;27;20085;-73
2023/01/05 00:28:20;;;;;;;5.20;1.35;;;;;;;9.31;91.09;98220.91;4220585;27;20100;-73
2023/01/05 00:30:24;;;;;;;4.18;1.27;;;;;;;9.28;91.39;98226.00;4222673;27;20054;-73
2023/01/05 00:32:26;;;;;;;3.75;1.35;;;;;;;9.26;90.81;98228.31;4221354;27;20043;-73
2023/01/05 00:34:26;;;;;;;7.32;1.20;;;;;;;9.41;89.27;98221.00;4232295;27;20090;-73
2023/01/05 00:36:26;;;;;;;5.38;1.45;;;;;;;9.43;89.66;98220.63;4219049;27;20088;-73
2023/01/05 00:38:27;;;;;;;2.80;1.10;;;;;;;9.35;89.94;98219.78;4220300;27;20116;-73
2023/01/05 00:40:27;;;;;;;4.68;1.65;;;;;;;9.37;90.52;98225.72;4220538;27;20432;-73
2023/01/05 00:42:28;;;;;;;4.82;1.45;;;;;;;9.33;90.58;98227.63;4227492;27;20467;-73
2023/01/05 00:44:28;;;;;;;3.20;1.10;;;;;;;9.35;90.18;98221.72;4230766;27;20491;-73
2023/01/05 00:46:28;;;;;;;6.85;1.65;;;;;;;9.35;90.70;98224.47;4225297;27;20049;-72
2023/01/05 00:48:29;;;;;;;5.38;1.23;;;;;;;9.30;91.07;98228.38;4220415;27;20118;-72
2023/01/05 00:50:29;;;;;;;3.33;1.13;;;;;;;9.39;89.77;98231.66;4226778;27;20320;-72
2023/01/05 00:52:29;;;;;;;7.05;1.50;;;;;;;9.38;90.45;98218.22;4219802;27;20130;-74
2023/01/05 00:54:30;;;;;;;3.92;1.38;;;;;;;9.37;90.08;98224.91;4221445;27;20044;-72
2023/01/05 00:56:30;;;;;;;6.65;2.28;;;;;;;9.39;88.98;98228.88;4229846;27;20068;-72
2023/01/05 00:58:31;;;;;;;4.47;1.20;;;;;;;9.45;89.26;98237.66;4226808;27;20472;-72
2023/01/05 01:00:31;;;;;;;6.18;1.73;;;;;;;9.47;88.04;98241.63;4220263;27;20198;-72
2023/01/05 01:02:31;;;;;;;3.80;1.42;;;;;;;9.54;88.16;98232.63;4219390;27;20262;-72
2023/01/05 01:04:33;;;;;;;7.03;1.30;;;;;;;9.46;87.89;98248.31;4220604;27;20322;-72
2023/01/05 01:06:33;;;;;;;6.47;2.65;;;;;;;9.46;87.74;98223.44;4224984;27;20439;-72
2023/01/05 01:08:33;;;;;;;5.13;1.85;;;;;;;9.46;87.73;98222.66;4235072;27;20075;-72
2023/01/05 01:10:34;;;;;;;5.20;1.85;;;;;;;9.48;87.56;98237.69;4235551;27;20035;-72
2023/01/05 01:12:34;;;;;;;6.22;1.75;;;;;;;9.49;88.06;98247.53;4225641;27;20032;-72
2023/01/05 01:14:35;;;;;;;3.75;1.20;;;;;;;9.56;87.20;98239.34;4231311;27;20062;-73
2023/01/05 01:16:35;;;;;;;7.40;1.63;;;;;;;9.61;86.30;98254.81;4220865;27;20043;-73
2023/01/05 01:18:36;;;;;;;9.10;1.35;;;;;;;9.63;85.66;98257.19;4220367;27;20055;-72
2023/01/05 01:20:36;;;;;;;2.30;1.08;;;;;;;9.65;85.83;98263.13;4220055;27;20044;-72
2023/01/05 01:22:38;;;;;;;4.15;1.40;;;;;;;9.61;86.26;98252.03;4219016;27;20496;-72
2023/01/05 01:24:38;;;;;;;6.57;1.50;;;;;;;9.60;85.04;98255.97;4220716;27;20294;-72
2023/01/05 01:26:39;;;;;;;4.95;1.35;;;;;;;9.61;84.65;98256.78;4227328;27;20043;-72
2023/01/05 01:28:39;;;;;;;5.07;1.50;;;;;;;9.61;84.63;98254.81;4224291;27;20096;-72
2023/01/05 01:30:39;;;;;;;5.97;1.63;;;;;;;9.59;84.41;98265.41;4226853;27;20507;-73
2023/01/05 01:32:40;;;;;;;4.88;1.42;;;;;;;9.57;84.51;98262.25;4227430;27;20051;-74
2023/01/05 01:34:40;;;;;;;4.68;1.30;;;;;;;9.66;83.86;98256.41;4221141;27;20464;-74
2023/01/05 01:36:41;;;;;;;3.78;1.55;;;;;;;9.67;83.01;98263.53;4233066;27;20490;-74
2023/01/05 01:38:42;;;;;;;4.15;1.52;;;;;;;9.64;83.14;98278.09;4227211;27;20369;-74
2023/01/05 01:40:44;;;;;;;2.47;1.38;;;;;;;9.70;82.00;98263.59;4219822;27;20040;-74
2023/01/05 01:42:45;;;;;;;5.05;1.50;;;;;;;9.73;82.14;98262.03;4218909;27;20043;-74
2023/01/05 01:45:00;;;;;;;9.80;2.03;;;;;;;9.69;82.72;98277.78;4227629;27;20102;-74
2023/01/05 01:47:00;;;;;;;6.95;1.27;;;;;;;9.66;81.76;98264.72;4231391;27;20085;-74
2023/01/05 01:49:07;;;;;;;5.30;1.67;;;;;;;9.67;81.70;98271.81;4234559;27;20048;-74
2023/01/05 01:51:27;;;;;;;5.95;1.38;;;;;;;9.66;81.47;98248.94;4231990;27;20031;-74
2023/01/05 01:53:41;;;;;;;9.13;1.83;;;;;;;9.61;82.00;98254.81;4218740;27;20449;-74
2023/01/05 01:55:42;;;;;;;5.60;1.50;;;;;;;9.63;81.05;98263.50;4222435;27;20062;-74
2023/01/05 01:57:44;;;;;;;5.03;1.65;;;;;;;9.59;81.06;98251.59;4219190;28;20396;-74
2023/01/05 01:59:44;;;;;;;4.53;1.90;;;;;;;9.47;81.92;98247.13;4218092;27;20178;-74
2023/01/05 02:01:47;;;;;;;3.95;1.52;;;;;;;9.39;82.35;98239.94;4219757;27;20134;-74
2023/01/05 02:03:48;;;;;;;5.45;1.35;;;;;;;9.39;82.30;98239.13;4218676;27;20345;-74
2023/01/05 02:05:48;;;;;;;5.80;1.60;;;;;;;9.43;82.13;98240.78;4225749;27;20074;-73
2023/01/05 02:07:48;;;;;;;5.40;2.08;;;;;;;9.42;82.42;98246.66;4221484;27;20046;-74
2023/01/05 02:09:49;;;;;;;8.40;2.17;;;;;;;9.41;82.18;98237.59;4222909;27;20035;-74
2023/01/05 02:12:00;;;;;;;6.47;1.65;;;;;;;9.35;82.78;98225.31;4223034;27;20901;-74
2023/01/05 02:14:18;;;;;;;5.90;1.50;;;;;;;9.40;82.20;98241.53;4221120;27;20052;-74
2023/01/05 02:16:32;;;;;;;5.80;1.73;;;;;;;9.38;82.05;98227.31;4224497;27;20522;-74
2023/01/05 02:18:52;;;;;;;4.28;1.45;;;;;;;9.26;82.31;98222.00;4228549;27;20035;-74
2023/01/05 02:21:12;;;;;;;5.40;1.50;;;;;;;9.25;82.66;98248.81;4222217;27;20884;-74
2023/01/05 02:23:44;;;;;;;5.13;1.23;;;;;;;9.32;82.24;98248.13;4227488;27;20040;-74
2023/01/05 02:26:10;;;;;;;6.53;1.88;;;;;;;9.26;82.53;98220.03;4234200;27;20528;-74
2023/01/05 02:28:13;;;;;;;6.25;2.08;;;;;;;9.18;82.93;98223.88;4229612;27;20112;-74
2023/01/05 02:30:33;;;;;;;5.22;1.60;;;;;;;9.12;83.25;98250.25;4230727;27;20063;-74
2023/01/05 02:33:12;;;;;;;3.45;1.38;;;;;;;9.13;83.02;98240.00;4227677;27;20310;-74
2023/01/05 02:35:40;;;;;;;5.03;1.73;;;;;;;9.17;82.91;98246.34;4218575;27;20039;-74
2023/01/05 02:37:51;;;;;;;5.18;1.60;;;;;;;9.17;83.07;98244.38;4221859;27;20048;-74
2023/01/05 02:39:58;;;;;;;5.05;1.35;;;;;;;9.25;83.01;98242.50;4223939;27;20095;-73
2023/01/05 02:42:18;;;;;;;8.23;1.98;;;;;;;9.16;83.25;98242.78;4223847;27;20043;-73
2023/01/05 02:44:19;;;;;;;5.57;1.50;;;;;;;9.20;83.20;98235.38;4222139;27;20246;-74
2023/01/05 02:46:20;;;;;;;8.02;2.03;;;;;;;9.22;83.57;98244.06;4236746;27;20246;-74
2023/01/05 02:48:21;;;;;;;8.00;2.53;;;;;;;9.18;83.24;98234.13;4238822;27;20027;-74
2023/01/05 02:50:37;;;;;;;4.97;1.65;;;;;;;9.09;83.79;98234.41;4232002;27;20055;-74
2023/01/05 02:52:43;;;;;;;8.50;2.05;;;;;;;9.08;83.75;98243.88;4220902;27;20036;-74
2023/01/05 02:54:50;;;;;;;6.72;2.00;;;;;;;9.10;83.67;98243.47;4225878;27;20394;-74
2023/01/05 02:57:15;;;;;;;5.15;1.60;;;;;;;9.06;84.16;98240.69;4227070;27;20040;-74
2023/01/05 02:59:26;;;;;;;7.30;1.77;;;;;;;9.05;84.03;98235.56;4226461;27;20043;-74
2023/01/05 03:01:41;;;;;;;7.15;1.50;;;;;;;8.99;83.86;98230.34;4228868;27;20390;-74
2023/01/05 03:03:51;;;;;;;9.38;2.03;;;;;;;8.96;84.29;98233.84;4224885;27;20032;-74
2023/01/05 03:05:57;;;;;;;4.88;1.65;;;;;;;8.83;85.26;98239.97;4221713;27;20045;-74
2023/01/05 03:08:05;;;;;;;8.60;2.00;;;;;;;8.76;85.49;98239.84;4221123;28;20097;-74
2023/01/05 03:14:58;;;;;;;7.45;1.75;;;;;;;8.70;86.18;98248.47;4228635;27;20423;-74
2023/01/05 03:17:00;;;;;;;8.70;1.70;;;;;;;8.72;86.24;98242.56;4221154;27;20074;-74
2023/01/05 03:21:25;;;;;;;7.03;1.75;;;;;;;8.78;85.24;98235.56;4221340;27;20498;-74
2023/01/05 03:35:51;;;;;;;3.67;1.55;;;;;;;8.77;84.42;98256.06;4225186;27;20046;-74
2023/01/05 03:37:59;;;;;;;6.53;1.60;;;;;;;8.87;84.70;98262.91;4225922;27;20108;-74
2023/01/05 03:40:03;;;;;;;8.10;2.60;;;;;;;8.88;84.76;98262.53;4223229;27;20177;-74
2023/01/05 03:42:04;;;;;;;6.93;2.72;;;;;;;8.89;84.03;98253.06;4221123;27;20054;-74
2023/01/05 03:44:06;;;;;;;6.70;2.10;;;;;;;8.81;85.28;98259.66;4223557;27;20364;-74
2023/01/05 03:46:24;;;;;;;8.93;2.20;;;;;;;8.83;84.46;98284.91;4222237;27;20520;-74
2023/01/05 03:48:27;;;;;;;4.68;1.58;;;;;;;8.84;84.96;98271.91;4221140;27;20748;-74
2023/01/05 03:50:27;;;;;;;10.23;2.10;;;;;;;8.79;85.22;98252.91;4221668;27;20042;-74
2023/01/05 03:52:28;;;;;;;5.25;1.75;;;;;;;8.77;85.80;98282.81;4227779;27;20032;-74
2023/01/05 03:54:28;;;;;;;5.60;2.20;;;;;;;8.78;85.99;98263.16;4234459;27;20048;-74
2023/01/05 03:56:28;;;;;;;8.57;1.90;;;;;;;8.76;86.04;98265.47;4225544;27;20035;-73
2023/01/05 03:58:29;;;;;;;8.75;3.22;;;;;;;8.76;86.74;98253.66;4235065;27;20036;-74
2023/01/05 04:00:29;;;;;;;7.28;2.30;;;;;;;8.69;86.42;98268.16;4233797;27;20360;-74
2023/01/05 04:02:30;;;;;;;8.57;2.10;;;;;;;8.76;85.86;98256.41;4232703;27;20526;-74
2023/01/05 04:04:30;;;;;;;8.15;2.00;;;;;;;8.72;86.15;98259.13;4221705;27;20464;-74
2023/01/05 04:06:30;;;;;;;3.45;1.60;;;;;;;8.73;86.06;98260.72;4229501;27;20066;-74
2023/01/05 04:08:31;;;;;;;7.88;2.28;;;;;;;8.72;85.70;98270.94;4230327;27;20039;-74
2023/01/05 04:10:31;;;;;;;8.40;2.22;;;;;;;8.76;85.58;98264.69;4230720;27;20411;-74
2023/01/05 04:12:31;;;;;;;6.65;2.00;;;;;;;8.76;85.89;98282.03;4224979;27;20046;-74
2023/01/05 04:14:32;;;;;;;7.70;1.77;;;;;;;8.74;86.86;98270.56;4221145;27;20510;-74
2023/01/05 04:16:32;;;;;;;4.68;1.70;;;;;;;8.77;87.20;98275.38;4221728;27;20427;-74
2023/01/05 04:18:32;;;;;;;5.78;2.00;;;;;;;8.56;88.82;98267.53;4219791;27;20043;-74
2023/01/05 04:20:33;;;;;;;7.65;2.15;;;;;;;8.61;90.04;98274.72;4221819;27;20217;-74
2023/01/05 04:22:33;;;;;;;8.55;1.60;;;;;;;8.50;91.17;98274.53;4222120;27;20043;-74
2023/01/05 04:24:33;;;;;;;6.78;1.92;;;;;;;8.48;92.67;98287.09;4224532;27;20471;-74
2023/01/05 04:26:34;;;;;;;7.53;2.03;;;;;;;8.35;94.77;98281.75;4220711;27;20095;-74
2023/01/05 04:28:34;;;;;;;7.70;2.20;;;;;;;8.28;96.23;98289.91;4223610;27;20038;-74
2023/01/05 04:30:34;;;;;;;8.20;2.33;;;;;;;8.29;96.84;98294.25;4225312;27;20544;-74
2023/01/05 04:32:35;;;;;;;7.53;2.28;;;;;;;8.18;97.84;98290.47;4224109;27;20387;-74
2023/01/05 04:34:35;;;;;;;6.88;1.90;;;;;;;8.17;98.68;98303.47;4224960;27;20139;-74
2023/01/05 04:36:35;;;;;;;16.33;3.35;;;;;;;8.11;99.12;98295.91;4224562;27;20050;-74
2023/01/05 04:38:36;;;;;;;7.15;2.00;;;;;;;8.01;100.00;98294.50;4225067;27;20044;-74
2023/01/05 04:40:36;;;;;;;7.57;2.63;;;;;;;8.03;100.00;98299.69;4222900;27;20409;-74
2023/01/05 04:42:37;;;;;;;8.40;2.17;;;;;;;7.97;100.00;98301.94;4220659;27;20459;-75
2023/01/05 04:44:37;;;;;;;6.43;2.17;;;;;;;7.87;100.00;98319.06;4215645;27;20039;-75
2023/01/05 04:46:37;;;;;;;8.80;2.40;;;;;;;7.86;100.00;98317.44;4224527;27;20057;-75
2023/01/05 04:48:38;;;;;;;6.45;2.13;;;;;;;7.78;100.00;98312.97;4226712;27;20031;-75
2023/01/05 04:50:38;;;;;;;5.53;1.55;;;;;;;7.71;100.00;98299.06;4220250;27;20040;-75
2023/01/05 04:52:38;;;;;;;7.32;1.55;;;;;;;7.61;100.00;98297.66;4223439;27;20302;-75
2023/01/05 04:54:39;;;;;;;9.35;2.95;;;;;;;7.59;100.00;98314.56;4224403;27;20829;-75
2023/01/05 04:56:39;;;;;;;11.02;2.22;;;;;;;7.56;100.00;98309.78;4225446;27;20100;-75
2023/01/05 04:58:39;;;;;;;8.18;2.03;;;;;;;7.57;100.00;98324.34;4217946;27;20036;-75
2023/01/05 05:00:40;;;;;;;15.85;6.40;;;;;;;7.50;100.00;98308.47;4221185;27;20036;-75
2023/01/05 05:02:40;;;;;;;9.20;2.42;;;;;;;7.53;100.00;98307.75;4222979;27;20403;-75
2023/01/05 05:04:41;;;;;;;8.00;2.78;;;;;;;7.53;100.00;98296.75;4219962;27;20051;-75
2023/01/05 05:06:41;;;;;;;6.43;2.72;;;;;;;7.48;100.00;98301.75;4216768;27;20751;-75
2023/01/05 05:08:42;;;;;;;8.43;2.30;;;;;;;7.47;100.00;98289.94;4219443;27;20148;-75
2023/01/05 05:10:42;;;;;;;9.57;2.47;;;;;;;7.45;100.00;98292.25;4226092;27;20054;-75
2023/01/05 05:12:42;;;;;;;12.73;2.20;;;;;;;7.38;100.00;98286.59;4232049;27;20047;-75
2023/01/05 05:14:43;;;;;;;8.55;2.50;;;;;;;7.43;100.00;98282.75;4224661;27;20051;-75
2023/01/05 05:16:43;;;;;;;5.60;1.90;;;;;;;7.39;100.00;98282.69;4216452;27;20055;-74
2023/01/05 05:18:43;;;;;;;6.75;2.15;;;;;;;7.37;100.00;98293.25;4222766;27;20116;-75
2023/01/05 05:20:47;;;;;;;5.55;2.40;;;;;;;7.43;100.00;98291.00;4218637;27;20127;-74
2023/01/05 05:22:48;;;;;;;5.53;2.08;;;;;;;7.39;100.00;98292.91;4229919;27;20043;-74
2023/01/05 05:24:48;;;;;;;3.53;1.90;;;;;;;7.38;100.00;98296.81;4220169;27;20506;-74
2023/01/05 05:26:48;;;;;;;5.70;2.00;;;;;;;7.40;100.00;98302.75;4224748;27;20126;-75
2023/01/05 05:28:49;;;;;;;10.55;2.50;;;;;;;7.36;100.00;98299.09;4224549;27;20054;-74
2023/01/05 05:30:49;;;;;;;9.32;2.00;;;;;;;7.47;100.00;98303.69;4221224;27;20047;-74
2023/01/05 05:32:49;;;;;;;8.15;2.00;;;;;;;7.44;100.00;98314.63;4218169;27;20039;-75
2023/01/05 05:34:50;;;;;;;5.88;2.42;;;;;;;7.45;100.00;98311.53;4217804;27;20720;-74
2023/01/05 05:36:50;;;;;;;6.68;2.13;;;;;;;7.45;100.00;98314.28;4219846;27;20043;-75
2023/01/05 05:38:50;;;;;;;7.28;2.15;;;;;;;7.45;100.00;98319.00;4216643;27;20145;-74
2023/01/05 05:40:51;;;;;;;5.18;2.10;;;;;;;7.41;100.00;98302.38;4227280;27;20051;-74
2023/01/05 05:42:51;;;;;;;9.30;2.20;;;;;;;7.39;100.00;98318.47;4217337;27;20459;-74
2023/01/05 05:44:51;;;;;;;10.65;2.30;;;;;;;7.51;100.00;98314.75;4222772;27;20162;-74
2023/01/05 05:46:52;;;;;;;10.98;2.53;;;;;;;7.50;100.00;98313.97;4217936;27;20043;-74
2023/01/05 05:48:55;;;;;;;8.27;2.65;;;;;;;7.53;100.00;98331.72;4222450;27;20169;-75
2023/01/05 05:50:55;;;;;;;14.00;2.53;;;;;;;7.56;100.00;98328.25;4220953;27;20047;-74
2023/01/05 05:52:56;;;;;;;5.32;1.85;;;;;;;7.62;99.95;98334.28;4217844;27;20540;-74
2023/01/05 05:54:56;;;;;;;8.27;2.53;;;;;;;7.54;100.00;98341.59;4219460;27;20035;-74
2023/01/05 05:56:56;;;;;;;5.18;2.00;;;;;;;7.54;100.00;98327.81;4219785;27;20407;-74
2023/01/05 05:58:57;;;;;;;10.65;2.40;;;;;;;7.52;100.00;98344.69;4225163;27;20382;-74
2023/01/05 06:00:58;;;;;;;6.45;1.90;;;;;;;7.54;100.00;98349.84;4222205;27;20394;-74
2023/01/05 06:02:58;;;;;;;6.95;3.53;;;;;;;7.53;100.00;98346.31;4220796;27;20133;-74
2023/01/05 06:04:59;;;;;;;5.18;2.10;;;;;;;7.57;100.00;98349.13;4201609;27;20070;-74
2023/01/05 06:06:59;;;;;;;8.77;2.97;;;;;;;7.53;100.00;98351.81;4189444;27;20561;-74
2023/01/05 06:08:59;;;;;;;7.78;2.70;;;;;;;7.48;100.00;98345.78;4223401;27;20069;-74
2023/01/05 06:11:00;;;;;;;8.82;2.20;;;;;;;7.43;100.00;98344.09;4220801;27;20052;-74
2023/01/05 06:13:00;;;;;;;6.63;2.15;;;;;;;7.39;100.00;98351.50;4217063;28;20078;-74
2023/01/05 06:15:00;;;;;;;7.18;1.95;;;;;;;7.40;100.00;98347.59;4232093;27;20039;-74
2023/01/05 06:17:01;;;;;;;8.70;2.30;;;;;;;7.40;100.00;98350.34;4219755;27;20297;-74
2023/01/05 06:19:01;;;;;;;12.45;3.88;;;;;;;7.38;100.00;98352.66;4222032;27;20046;-74
2023/01/05 06:21:01;;;;;;;7.57;3.28;;;;;;;7.44;99.30;98361.41;4229931;27;20068;-74
2023/01/05 06:23:02;;;;;;;8.50;2.05;;;;;;;7.48;98.47;98371.34;4235114;27;20126;-74
2023/01/05 06:25:03;;;;;;;4.97;1.85;;;;;;;7.49;98.99;98383.16;4220846;27;20048;-74
2023/01/05 06:27:04;;;;;;;13.38;2.20;;;;;;;7.53;97.74;98389.53;4219122;27;20043;-74
2023/01/05 06:29:04;;;;;;;7.68;2.67;;;;;;;7.55;97.23;98374.25;4223732;27;20043;-74
2023/01/05 06:31:04;;;;;;;7.85;2.38;;;;;;;7.55;97.48;98378.97;4220592;27;20411;-74
2023/01/05 06:33:05;;;;;;;5.47;2.30;;;;;;;7.54;97.26;98386.44;4219329;27;20043;-74
2023/01/05 06:35:05;;;;;;;11.60;3.10;;;;;;;7.58;97.35;98381.00;4219635;27;20127;-74
2023/01/05 06:37:06;;;;;;;6.40;2.30;;;;;;;7.62;96.59;98386.59;4218424;27;20051;-74
2023/01/05 06:39:06;;;;;;;6.60;1.98;;;;;;;7.67;95.79;98386.28;4217725;27;20032;-74
2023/01/05 06:41:06;;;;;;;8.00;2.33;;;;;;;7.65;95.93;98396.88;4218413;27;20047;-74
2023/01/05 06:43:07;;;;;;;9.15;2.80;;;;;;;7.64;96.42;98403.56;4217766;27;20040;-74
2023/01/05 06:45:10;;;;;;;5.80;1.80;;;;;;;7.62;96.60;98411.38;4221861;27;20039;-74
2023/01/05 06:47:11;;;;;;;6.68;2.20;;;;;;;7.67;96.11;98416.59;4233385;27;20070;-74
2023/01/05 06:49:11;;;;;;;8.15;2.15;;;;;;;7.65;96.60;98416.16;4233736;27;20332;-74
2023/01/05 06:51:12;;;;;;;3.47;1.70;;;;;;;7.66;95.98;98415.78;4224117;27;20452;-74
2023/01/05 06:53:12;;;;;;;6.63;2.45;;;;;;;7.66;96.62;98415.78;4221448;27;20621;-74
2023/01/05 06:55:12;;;;;;;9.45;2.45;;;;;;;7.67;96.03;98427.59;4222682;27;20051;-74
2023/01/05 06:57:13;;;;;;;6.38;2.28;;;;;;;7.64;96.16;98426.38;4222065;27;20035;-74
2023/01/05 06:59:13;;;;;;;8.43;2.00;;;;;;;7.67;96.17;98433.91;4222593;27;20484;-74
2023/01/05 07:01:13;;;;;;;6.50;2.22;;;;;;;7.68;96.17;98441.00;4222148;27;20379;-74
2023/01/05 07:03:14;;;;;;;8.20;2.60;;;;;;;7.72;96.36;98447.41;4221271;27;20122;-74
2023/01/05 07:05:14;;;;;;;6.15;2.30;;;;;;;7.74;96.10;98447.84;4222407;27;20047;-74
2023/01/05 07:07:15;;;;;;;6.40;2.50;;;;;;;7.74;96.32;98463.56;4221820;27;20119;-74
2023/01/05 07:09:15;;;;;;;8.25;2.38;;;;;;;7.78;95.48;98456.19;4221675;27;20046;-74
2023/01/05 07:11:16;;;;;;;6.10;2.08;;;;;;;7.83;95.93;98464.94;4225031;27;20083;-74
2023/01/05 07:13:16;;;;;;;13.32;2.80;;;;;;;7.81;95.60;98461.75;4228240;27;20044;-74
2023/01/05 07:15:16;;;;;;;9.18;2.60;;;;;;;7.94;94.72;98472.66;4222066;27;20088;-74
2023/01/05 07:17:17;;;;;;;9.88;3.33;;;;;;;7.98;94.31;98462.50;4221836;27;20545;-74
2023/01/05 07:19:17;;;;;;;8.43;3.15;;;;;;;7.98;95.28;98468.03;4222069;27;20039;-74
2023/01/05 07:21:17;;;;;;;5.80;2.25;;;;;;;7.94;95.53;98486.41;4221945;27;20043;-74
2023/01/05 07:23:19;;;;;;;7.72;2.85;;;;;;;7.94;95.54;98467.94;4221324;27;20048;-74
2023/01/05 07:25:19;;;;;;;11.60;2.83;;;;;;;7.97;94.77;98461.72;4221940;27;20044;-74
2023/01/05 07:27:19;;;;;;;6.28;2.25;;;;;;;7.94;94.82;98478.16;4221268;27;20112;-74
2023/01/05 07:29:20;;;;;;;6.40;2.60;;;;;;;7.93;94.63;98485.63;4221887;27;20047;-74
2023/01/05 07:31:20;;;;;;;9.35;2.20;;;;;;;7.95;94.30;98485.28;4221932;27;20543;-74
2023/01/05 07:33:20;;;;;;;7.40;2.53;;;;;;;7.95;94.55;98483.31;4220763;27;20047;-74
2023/01/05 07:35:21;;;;;;;5.32;2.35;;;;;;;7.99;94.65;98492.47;4221693;27;20044;-74
2023/01/05 07:37:23;;;;;;;7.28;2.40;;;;;;;7.95;94.69;98497.09;4221463;27;20071;-74
2023/01/05 07:39:23;;;;;;;9.55;3.35;;;;;;;7.86;95.70;98494.56;4221705;27;20039;-74
2023/01/05 07:41:24;;;;;;;7.60;2.60;;;;;;;8.03;93.97;98481.53;4221076;27;20192;-74
2023/01/05 07:43:24;;;;;;;8.98;2.55;;;;;;;8.06;94.27;98478.03;4220505;27;20046;-74
2023/01/05 07:45:25;;;;;;;3.83;2.20;;;;;;;8.01;94.37;98487.38;4221606;27;20048;-74
2023/01/05 07:47:25;;;;;;;7.53;2.10;;;;;;;8.02;93.91;98477.94;4221575;27;20043;-74
2023/01/05 07:49:26;;;;;;;8.75;2.65;;;;;;;7.96;94.57;98493.19;4228932;27;20110;-74
2023/01/05 07:51:26;;;;;;;9.32;2.40;;;;;;;7.86;94.61;98483.53;4236820;27;20298;-74
2023/01/05 07:53:28;;;;;;;6.40;1.73;;;;;;;7.80;94.94;98492.44;4235857;27;20047;-74
2023/01/05 07:55:28;;;;;;;4.53;1.77;;;;;;;7.85;94.33;98498.44;4222806;27;20526;-74
2023/01/05 07:57:29;;;;;;;8.60;2.50;;;;;;;7.79;94.07;98507.38;4220904;27;20704;-74
2023/01/05 07:59:29;;;;;;;7.35;2.20;;;;;;;7.72;94.87;98493.44;4221582;27;20341;-74
2023/01/05 08:01:30;;;;;;;8.52;1.98;;;;;;;7.69;94.59;98503.19;4221078;27;20075;-74
2023/01/05 08:03:30;;;;;;;7.32;2.40;;;;;;;7.71;94.15;98509.16;4220356;27;20066;-74
2023/01/05 08:05:33;;;;;;;9.15;3.15;;;;;;;7.70;94.48;98506.75;4220873;27;20128;-74
2023/01/05 08:07:37;;;;;;;7.22;2.58;;;;;;;7.71;94.03;98495.38;4224870;27;20045;-74
2023/01/05 08:11:56;;;;;;;7.78;2.55;;;;;;;7.83;93.58;98502.72;4220627;27;20061;-74
2023/01/05 08:14:01;;;;;;;12.57;6.10;;;;;;;7.81;93.60;98508.59;4220541;27;20040;-74
2023/01/05 08:16:01;;;;;;;19.13;6.82;;;;;;;7.84;92.75;98515.34;4221695;27;20074;-74
2023/01/05 08:18:02;;;;;;;16.58;6.20;;;;;;;7.92;92.35;98513.53;4220745;27;20035;-74
2023/01/05 08:20:02;;;;;;;11.95;3.65;;;;;;;7.89;92.48;98528.84;4220602;27;20031;-74
2023/01/05 08:22:03;;;;;;;22.90;8.77;;;;;;;7.89;92.66;98534.34;4221117;27;20103;-73
2023/01/05 08:24:03;;;;;;;11.52;5.85;;;;;;;7.91;93.16;98534.78;4232040;27;20083;-74
2023/01/05 08:26:12;;;;;;;14.52;5.50;;;;;;;7.99;92.78;98538.50;4235997;27;20031;-74
2023/01/05 08:28:13;;;;;;;9.57;3.58;;;;;;;8.00;92.58;98540.88;4220555;27;20118;-74
2023/01/05 08:30:13;;;;;;;10.93;3.42;;;;;;;8.08;93.40;98539.09;4220995;27;20080;-74
2023/01/05 08:32:14;;;;;;;8.85;3.30;;;;;;;8.11;93.00;98536.44;4220748;27;20039;-74
2023/01/05 08:34:14;;;;;;;9.20;3.80;;;;;;;8.15;92.91;98547.53;4220106;27;20054;-74
2023/01/05 08:36:18;;;;;;;9.70;3.13;;;;;;;8.15;93.17;98533.75;4220418;27;20040;-74
2023/01/05 08:38:20;;;;;;;10.35;5.43;;;;;;;8.20;92.75;98541.75;4220202;27;20286;-74
2023/01/05 08:40:21;;;;;;;8.95;2.90;;;;;;;8.23;92.92;98543.75;4220955;27;20047;-74
2023/01/05 08:42:21;;;;;;;8.23;2.90;;;;;;;8.23;92.20;98556.75;4220053;27;20044;-74
2023/01/05 08:44:21;;;;;;;6.03;2.17;;;;;;;8.28;91.93;98546.25;4220125;27;20043;-74
2023/01/05 08:46:25;;;;;;;6.15;2.83;;;;;;;8.22;92.59;98553.19;4220880;27;20314;-74
2023/01/05 08:48:25;;;;;;;11.43;6.72;;;;;;;8.26;92.48;98572.56;4220493;27;20521;-73
2023/01/05 08:50:25;;;;;;;9.68;2.80;;;;;;;8.30;91.14;98571.50;4220336;27;20074;-74
2023/01/05 08:52:26;;;;;;;7.72;3.25;;;;;;;8.42;90.45;98565.84;4220053;27;20339;-74
2023/01/05 08:54:26;;;;;;;10.65;3.35;;;;;;;8.42;91.33;98574.13;4219680;27;20044;-74
2023/01/05 08:56:27;;;;;;;8.63;4.28;;;;;;;8.41;91.67;98571.75;4223322;27;20403;-74
2023/01/05 08:58:27;;;;;;;9.75;3.85;;;;;;;8.41;91.46;98571.75;4236411;27;20035;-74
2023/01/05 09:00:27;;;;;;;11.68;3.33;;;;;;;8.43;91.70;98581.22;4226733;27;20051;-74
2023/01/05 09:02:28;;;;;;;9.02;4.22;;;;;;;8.47;91.92;98586.06;4231414;27;20401;-74
2023/01/05 09:04:28;;;;;;;7.90;3.30;;;;;;;8.52;91.61;98582.97;4229079;27;20479;-74
2023/01/05 09:06:29;;;;;;;7.07;3.42;;;;;;;8.50;91.22;98588.88;4220448;27;20051;-74
2023/01/05 09:08:30;;;;;;;11.60;4.78;;;;;;;8.50;91.73;98580.59;4219548;27;20036;-74
2023/01/05 09:10:31;;;;;;;5.35;3.10;;;;;;;8.64;90.46;98589.19;4223113;27;20455;-74
2023/01/05 09:12:34;;;;;;;5.32;3.10;;;;;;;8.65;89.97;98596.28;4235899;27;20039;-74
2023/01/05 09:14:34;;;;;;;9.48;3.05;;;;;;;8.66;90.12;98580.53;4231787;27;20050;-74
2023/01/05 09:16:35;;;;;;;6.78;3.35;;;;;;;8.60;90.65;98599.31;4220037;27;20035;-74
2023/01/05 09:18:36;;;;;;;5.60;2.70;;;;;;;8.62;90.04;98596.22;4219907;27;20075;-74
2023/01/05 09:20:36;;;;;;;4.80;2.35;;;;;;;8.64;90.27;98591.94;4220164;27;20040;-74
2023/01/05 09:22:37;;;;;;;6.63;3.08;;;;;;;8.58;90.30;98601.66;4219053;27;20044;-74
2023/01/05 09:24:38;;;;;;;7.15;2.15;;;;;;;8.63;90.67;98592.31;4220055;27;20215;-74
2023/01/05 09:26:39;;;;;;;3.92;2.08;;;;;;;8.58;90.87;98601.66;4219654;27;20027;-74
2023/01/05 09:28:39;;;;;;;4.90;2.10;;;;;;;8.60;89.62;98610.34;4220075;27;20365;-74
2023/01/05 09:30:40;;;;;;;3.65;2.13;;;;;;;8.62;89.88;98613.56;4234752;27;20039;-74
2023/01/05 09:32:40;;;;;;;5.63;1.77;;;;;;;8.65;89.85;98612.84;4234024;27;20074;-74
2023/01/05 09:34:40;;;;;;;5.53;2.25;;;;;;;8.69;90.10;98622.00;4235964;27;20111;-74
2023/01/05 09:36:41;;;;;;;4.30;2.05;;;;;;;8.72;90.33;98612.19;4233820;27;20059;-74
2023/01/05 09:38:41;;;;;;;6.28;2.20;;;;;;;8.79;90.44;98606.81;4223584;27;20078;-74
2023/01/05 09:40:42;;;;;;;4.45;2.30;;;;;;;8.83;90.35;98623.44;4219605;27;20058;-74
2023/01/05 09:42:45;;;;;;;5.55;2.30;;;;;;;8.91;90.04;98611.38;4219538;27;20055;-74
2023/01/05 09:44:56;;;;;;;4.20;1.98;;;;;;;8.92;90.39;98616.53;4219376;27;20089;-74
2023/01/05 09:47:02;;;;;;;6.28;2.67;;;;;;;9.04;90.07;98617.56;4219759;27;20048;-74
2023/01/05 09:49:05;;;;;;;5.82;2.50;;;;;;;9.10;88.82;98616.09;4219654;27;20058;-74
2023/01/05 09:51:08;;;;;;;4.32;1.77;;;;;;;9.12;89.13;98616.53;4219476;27;20097;-74
2023/01/05 09:53:10;;;;;;;4.22;1.65;;;;;;;9.12;88.29;98614.59;4218820;27;20081;-74
2023/01/05 09:55:19;;;;;;;4.70;1.77;;;;;;;9.12;89.07;98619.31;4219504;27;20096;-74
2023/01/05 09:57:29;;;;;;;5.63;2.20;;;;;;;9.12;88.44;98620.09;4219637;27;20036;-74
2023/01/05 09:59:37;;;;;;;4.05;1.75;;;;;;;9.12;88.26;98617.34;4226180;27;20051;-74
2023/01/05 10:01:39;;;;;;;5.70;1.85;;;;;;;9.12;88.90;98613.78;4232932;27;20047;-74
2023/01/05 10:03:46;;;;;;;5.03;2.42;;;;;;;9.07;89.06;98616.81;4218698;27;20092;-74
2023/01/05 10:05:48;;;;;;;6.32;2.13;;;;;;;9.06;88.71;98623.50;4219133;27;20259;-74
2023/01/05 10:08:01;;;;;;;5.35;2.10;;;;;;;8.97;90.26;98627.28;4219613;27;20620;-74
2023/01/05 10:10:11;;;;;;;3.80;1.83;;;;;;;8.87;89.47;98647.19;4218766;27;20047;-74
2023/01/05 10:14:48;;;;;;;4.25;1.63;;;;;;;8.85;90.68;98643.97;4218764;27;20042;-74
2023/01/05 10:16:49;;;;;;;5.55;2.00;;;;;;;8.85;91.04;98641.22;4219117;27;20120;-74
2023/01/05 10:18:49;;;;;;;9.73;2.10;;;;;;;8.82;92.18;98661.28;4231199;27;20468;-74